Terminal Aerodrome Forecast
Issued by NWS

Home | Current Version | Previous Version | Text Only | Print | Product List | Glossary On
Versions: 1 2 3 4 5 6 7 8 9 10 11 12 13 14 15 16 17 18 19 20 21
000
FTUS45 KTWC 170525
TAFOLS
TAF
KOLS 170525Z 1706/1806 VRB03KT P6SM BKN060
     FM171000 VRB03KT P6SM FEW060 SCT250
     FM171900 20006KT P6SM SCT060 BKN200
     FM172200 25006KT P6SM BKN060 BKN200=

USA.gov is the U.S. government's official web portal to all federal, state and local government web resources and services.